Time;durP1;ratioP1;P1;durP2;ratioP2;P2;SDS_P1;SDS_P2;PMS_P1;PMS_P2;Temp;Humidity;BMP_temperature;BMP_pressure;BME280_temperature;BME280_humidity;BME280_pressure;Samples;Min_cycle;Max_cycle;Signal;HPM_P1;HPM_P2
2022/10/24 00:01:11;;;;;;;;;;;16.40;99.90;;;;;;7331743;19;109010;-76
2022/10/24 00:03:38;;;;;;;;;;;16.40;99.90;;;;;;7330139;19;109440;-76
2022/10/24 00:06:07;;;;;;;;;;;16.30;99.90;;;;;;7338614;19;108704;-75
2022/10/24 00:08:35;;;;;;;;;;;16.40;99.90;;;;;;7332366;19;111065;-76
2022/10/24 00:11:06;;;;;;;;;;;16.40;99.90;;;;;;7333740;19;113536;-75
2022/10/24 00:13:33;;;;;;;;;;;16.40;99.90;;;;;;7333528;19;109705;-76
2022/10/24 00:16:00;;;;;;;;;;;16.30;99.90;;;;;;7330197;19;110226;-76
2022/10/24 00:18:27;;;;;;;;;;;16.30;99.90;;;;;;7331490;19;108738;-76
2022/10/24 00:20:54;;;;;;;;;;;16.30;99.90;;;;;;7331797;19;111266;-76
2022/10/24 00:23:21;;;;;;;;;;;16.30;99.90;;;;;;7329849;19;110300;-76
2022/10/24 00:25:48;;;;;;;;;;;16.30;99.90;;;;;;7341114;19;112006;-76
2022/10/24 00:28:15;;;;;;;;;;;16.30;99.90;;;;;;7336829;19;110278;-75
2022/10/24 00:30:42;;;;;;;;;;;16.30;99.90;;;;;;7338539;19;109602;-75
2022/10/24 00:33:09;;;;;;;;;;;16.30;99.90;;;;;;7338711;19;109131;-75
2022/10/24 00:35:36;;;;;;;;;;;16.30;99.90;;;;;;7339300;19;110305;-75
2022/10/24 00:38:03;;;;;;;;;;;16.30;99.90;;;;;;7340656;19;109416;-76
2022/10/24 00:40:29;;;;;;;;;;;16.40;99.90;;;;;;7338071;19;109695;-75
2022/10/24 00:42:56;;;;;;;;;;;16.30;99.90;;;;;;7339462;19;111388;-76
2022/10/24 00:45:39;;;;;;;;;;;16.50;99.90;;;;;;7338338;19;108301;-76
2022/10/24 00:48:20;;;;;;;;;;;16.40;99.90;;;;;;7340527;19;110648;-75
2022/10/24 00:50:49;;;;;;;;;;;16.50;99.90;;;;;;7337011;19;108925;-75
2022/10/24 00:53:17;;;;;;;;;;;16.50;99.90;;;;;;7337709;19;110319;-75
2022/10/24 00:55:46;;;;;;;;;;;16.50;99.90;;;;;;7338116;19;109750;-75
2022/10/24 00:58:14;;;;;;;;;;;16.50;99.90;;;;;;7337040;19;109284;-75
2022/10/24 01:00:42;;;;;;;;;;;16.60;99.90;;;;;;7337401;19;110222;-75
2022/10/24 01:03:10;;;;;;;;;;;16.70;99.90;;;;;;7335516;19;110428;-75
2022/10/24 01:06:00;;;;;;;;;;;16.70;99.90;;;;;;7336729;19;109777;-75
2022/10/24 01:08:35;;;;;;;;;;;16.70;99.90;;;;;;7339227;19;109529;-75
2022/10/24 01:11:21;;;;;;;;;;;16.70;99.90;;;;;;7343485;19;110631;-75
2022/10/24 01:14:03;;;;;;;;;;;16.80;99.90;;;;;;7339436;19;110308;-75
2022/10/24 01:16:33;;;;;;;;;;;16.80;99.90;;;;;;7336820;19;110187;-75
2022/10/24 01:19:18;;;;;;;;;;;16.80;99.90;;;;;;7334293;19;109824;-75
2022/10/24 01:21:51;;;;;;;;;;;16.80;99.90;;;;;;7339342;19;109222;-75
2022/10/24 01:24:37;;;;;;;;;;;16.80;99.90;;;;;;7340945;19;110164;-75
2022/10/24 01:27:07;;;;;;;;;;;16.90;99.90;;;;;;7342624;19;108864;-75
2022/10/24 01:29:43;;;;;;;;;;;16.90;99.90;;;;;;7339036;19;109516;-75
2022/10/24 01:32:13;;;;;;;;;;;16.90;99.90;;;;;;7336664;19;111524;-74
2022/10/24 01:34:43;;;;;;;;;;;16.90;99.90;;;;;;7344091;19;109098;-75
2022/10/24 01:37:26;;;;;;;;;;;16.90;99.90;;;;;;7337032;19;111865;-74
2022/10/24 01:39:56;;;;;;;;;;;16.90;99.90;;;;;;7338997;19;108827;-75
2022/10/24 01:42:25;;;;;;;;;;;17.00;99.90;;;;;;7335961;19;109212;-75
2022/10/24 01:44:53;;;;;;;;;;;16.90;99.90;;;;;;7337009;19;111457;-75
2022/10/24 01:47:23;;;;;;;;;;;16.90;99.90;;;;;;7334325;19;109226;-75
2022/10/24 01:49:52;;;;;;;;;;;16.90;99.90;;;;;;7337294;19;109243;-75
2022/10/24 01:52:20;;;;;;;;;;;17.00;99.90;;;;;;7335803;19;110265;-75
2022/10/24 01:54:48;;;;;;;;;;;16.90;99.90;;;;;;7336553;19;109972;-75
2022/10/24 01:57:15;;;;;;;;;;;16.90;99.90;;;;;;7341275;19;108602;-75
2022/10/24 01:59:46;;;;;;;;;;;17.00;99.90;;;;;;7336474;19;109855;-74
2022/10/24 02:02:16;;;;;;;;;;;17.00;99.90;;;;;;7335433;19;109015;-75
2022/10/24 02:04:46;;;;;;;;;;;16.90;99.90;;;;;;7336157;19;111600;-74
2022/10/24 02:07:14;;;;;;;;;;;16.90;99.90;;;;;;7337122;19;109289;-75
2022/10/24 02:09:42;;;;;;;;;;;16.90;99.90;;;;;;7337279;19;109225;-75
2022/10/24 02:12:10;;;;;;;;;;;17.00;99.90;;;;;;7335818;19;111252;-74
2022/10/24 02:14:42;;;;;;;;;;;17.00;99.90;;;;;;7332904;19;110643;-75
2022/10/24 02:17:10;;;;;;;;;;;17.00;99.90;;;;;;7343091;19;109186;-75
2022/10/24 02:19:37;;;;;;;;;;;17.00;99.90;;;;;;7334470;19;109615;-74
2022/10/24 02:22:16;;;;;;;;;;;17.00;99.90;;;;;;7336011;19;109054;-74
2022/10/24 02:24:54;;;;;;;;;;;17.00;99.90;;;;;;7336311;19;109211;-74
2022/10/24 02:27:24;;;;;;;;;;;17.00;99.90;;;;;;7339404;19;110017;-74
2022/10/24 02:29:58;;;;;;;;;;;17.00;99.90;;;;;;7338045;19;112045;-74
2022/10/24 02:32:30;;;;;;;;;;;17.00;99.90;;;;;;7339442;19;111859;-74
2022/10/24 02:34:58;;;;;;;;;;;17.00;99.90;;;;;;7335978;19;108571;-74
2022/10/24 02:37:25;;;;;;;;;;;17.00;99.90;;;;;;7334601;19;111747;-74
2022/10/24 02:39:53;;;;;;;;;;;17.00;99.90;;;;;;7342050;19;111540;-74
2022/10/24 02:42:21;;;;;;;;;;;17.00;99.90;;;;;;7335401;19;112104;-74
2022/10/24 02:44:48;;;;;;;;;;;17.00;99.90;;;;;;7335237;19;110164;-74
2022/10/24 02:47:18;;;;;;;;;;;17.00;99.90;;;;;;7334038;19;109605;-73
2022/10/24 02:49:45;;;;;;;;;;;17.00;99.90;;;;;;7333703;19;109899;-75
2022/10/24 02:52:12;;;;;;;;;;;17.00;99.90;;;;;;7335752;19;112515;-74
2022/10/24 02:54:39;;;;;;;;;;;17.00;99.90;;;;;;7333438;19;108911;-75
2022/10/24 02:57:05;;;;;;;;;;;17.00;99.90;;;;;;7336554;19;109413;-74
2022/10/24 02:59:32;;;;;;;;;;;17.00;99.90;;;;;;7335797;19;112582;-74
2022/10/24 03:01:59;;;;;;;;;;;17.00;99.90;;;;;;7340971;19;109738;-74
2022/10/24 03:04:26;;;;;;;;;;;17.00;99.90;;;;;;7333951;19;112666;-74
2022/10/24 03:06:53;;;;;;;;;;;17.00;99.90;;;;;;7336558;19;108850;-74
2022/10/24 03:09:20;;;;;;;;;;;17.00;99.90;;;;;;7332987;19;109242;-74
2022/10/24 03:11:47;;;;;;;;;;;17.00;99.90;;;;;;7335019;19;110347;-74
2022/10/24 03:14:14;;;;;;;;;;;17.10;99.90;;;;;;7333341;19;109480;-75
2022/10/24 03:16:41;;;;;;;;;;;17.10;99.90;;;;;;7336608;19;108592;-75
2022/10/24 03:19:08;;;;;;;;;;;17.10;99.90;;;;;;7335086;19;109443;-74
2022/10/24 03:21:35;;;;;;;;;;;17.10;99.90;;;;;;7335427;19;109281;-74
2022/10/24 03:24:02;;;;;;;;;;;17.20;99.90;;;;;;7338997;19;108582;-74
2022/10/24 03:26:29;;;;;;;;;;;17.20;99.90;;;;;;7332469;19;109083;-74
2022/10/24 03:28:56;;;;;;;;;;;17.20;99.90;;;;;;7331785;19;109732;-74
2022/10/24 03:31:24;;;;;;;;;;;17.20;99.90;;;;;;7332497;19;110298;-74
2022/10/24 03:33:50;;;;;;;;;;;17.20;99.90;;;;;;7334988;19;110636;-74
2022/10/24 03:36:17;;;;;;;;;;;17.20;99.90;;;;;;7332796;19;109373;-74
2022/10/24 03:38:44;;;;;;;;;;;17.20;99.90;;;;;;7336366;19;110816;-75
2022/10/24 03:41:11;;;;;;;;;;;17.20;99.90;;;;;;7333442;19;108995;-74
2022/10/24 03:43:39;;;;;;;;;;;17.20;99.90;;;;;;7335522;19;111593;-74
2022/10/24 03:46:05;;;;;;;;;;;17.30;99.90;;;;;;7337840;19;109188;-74
2022/10/24 03:48:32;;;;;;;;;;;17.30;99.90;;;;;;7331699;19;108954;-75
2022/10/24 03:50:59;;;;;;;;;;;17.30;99.90;;;;;;7332210;19;111153;-74
2022/10/24 03:53:26;;;;;;;;;;;17.30;99.90;;;;;;7332735;19;108973;-75
2022/10/24 03:55:55;;;;;;;;;;;17.30;99.90;;;;;;7332845;19;109793;-74
2022/10/24 03:58:23;;;;;;;;;;;17.30;99.90;;;;;;7331450;19;111288;-75
2022/10/24 04:00:50;;;;;;;;;;;17.30;99.90;;;;;;7335235;19;109229;-74
2022/10/24 04:03:17;;;;;;;;;;;17.30;99.90;;;;;;7336377;19;109762;-75
2022/10/24 04:05:44;;;;;;;;;;;17.20;99.90;;;;;;7330340;19;111763;-75
2022/10/24 04:08:11;;;;;;;;;;;17.30;99.90;;;;;;7346349;19;109119;-75
2022/10/24 04:10:37;;;;;;;;;;;17.20;99.90;;;;;;7340104;19;110334;-75
2022/10/24 04:13:04;;;;;;;;;;;17.30;99.90;;;;;;7339820;19;108291;-75
2022/10/24 04:15:31;;;;;;;;;;;17.20;99.90;;;;;;7339603;19;109556;-74
2022/10/24 04:17:58;;;;;;;;;;;17.30;99.90;;;;;;7337951;19;110307;-74
2022/10/24 04:20:25;;;;;;;;;;;17.20;99.90;;;;;;7337910;19;109460;-74
2022/10/24 04:22:52;;;;;;;;;;;17.30;99.90;;;;;;7338766;19;112872;-74
2022/10/24 04:25:19;;;;;;;;;;;17.30;99.90;;;;;;7336882;19;110777;-74
2022/10/24 04:27:46;;;;;;;;;;;17.30;99.90;;;;;;7345389;19;108950;-75
2022/10/24 04:30:14;;;;;;;;;;;17.30;99.90;;;;;;7336876;19;109219;-74
2022/10/24 04:32:42;;;;;;;;;;;17.40;99.90;;;;;;7340345;19;109040;-74
2022/10/24 04:35:10;;;;;;;;;;;17.40;99.90;;;;;;7339534;19;108761;-74
2022/10/24 04:37:37;;;;;;;;;;;17.40;99.90;;;;;;7337514;19;112139;-74
2022/10/24 04:40:05;;;;;;;;;;;17.40;99.90;;;;;;7342626;19;108791;-75
2022/10/24 04:42:32;;;;;;;;;;;17.40;99.90;;;;;;7338106;19;108715;-74
2022/10/24 04:44:59;;;;;;;;;;;17.40;99.90;;;;;;7337998;19;111141;-73
2022/10/24 04:47:26;;;;;;;;;;;17.40;99.90;;;;;;7337652;19;109829;-75
2022/10/24 04:49:52;;;;;;;;;;;17.40;99.90;;;;;;7344156;19;109297;-74
2022/10/24 04:52:19;;;;;;;;;;;17.40;99.90;;;;;;7337660;19;108949;-74
2022/10/24 04:54:46;;;;;;;;;;;17.30;99.90;;;;;;7338059;19;110130;-75
2022/10/24 04:57:13;;;;;;;;;;;17.40;99.90;;;;;;7336767;19;111470;-75
2022/10/24 04:59:40;;;;;;;;;;;17.40;99.90;;;;;;7337598;19;109187;-74
2022/10/24 05:02:07;;;;;;;;;;;17.40;99.90;;;;;;7337373;19;110574;-74
2022/10/24 05:04:34;;;;;;;;;;;17.40;99.90;;;;;;7337732;19;110077;-74
2022/10/24 05:07:01;;;;;;;;;;;17.40;99.90;;;;;;7336980;19;109050;-75
2022/10/24 05:09:27;;;;;;;;;;;17.40;99.90;;;;;;7335317;19;110281;-74
2022/10/24 05:11:55;;;;;;;;;;;17.40;99.90;;;;;;7338075;19;113029;-74
2022/10/24 05:14:22;;;;;;;;;;;17.50;99.90;;;;;;7336634;19;108703;-74
2022/10/24 05:16:49;;;;;;;;;;;17.50;99.90;;;;;;7335382;19;110190;-75
2022/10/24 05:19:16;;;;;;;;;;;17.50;99.90;;;;;;7337306;19;109093;-74
2022/10/24 05:21:43;;;;;;;;;;;17.50;99.90;;;;;;7337494;19;112691;-75
2022/10/24 05:24:10;;;;;;;;;;;17.50;99.90;;;;;;7334481;19;110221;-74
2022/10/24 05:26:37;;;;;;;;;;;17.50;99.90;;;;;;7337695;19;108705;-74
2022/10/24 05:29:03;;;;;;;;;;;17.50;99.90;;;;;;7337799;19;110329;-74
2022/10/24 05:31:30;;;;;;;;;;;17.50;99.90;;;;;;7334679;19;111356;-74
2022/10/24 05:34:17;;;;;;;;;;;17.50;99.90;;;;;;7341852;19;108438;-75
2022/10/24 05:36:44;;;;;;;;;;;17.50;99.90;;;;;;7338363;19;110435;-74
2022/10/24 05:39:11;;;;;;;;;;;17.50;99.90;;;;;;7335523;19;108435;-74
2022/10/24 05:41:38;;;;;;;;;;;17.50;99.90;;;;;;7335610;19;109254;-74
2022/10/24 05:44:11;;;;;;;;;;;17.50;99.90;;;;;;7335917;19;110279;-74
2022/10/24 05:46:38;;;;;;;;;;;17.50;99.90;;;;;;7338335;19;109735;-75
2022/10/24 05:49:05;;;;;;;;;;;17.50;99.90;;;;;;7333974;19;109401;-74
2022/10/24 05:51:33;;;;;;;;;;;17.50;99.90;;;;;;7335452;19;112277;-74
2022/10/24 05:53:59;;;;;;;;;;;17.50;99.90;;;;;;7330966;19;109318;-75
2022/10/24 05:56:26;;;;;;;;;;;17.50;99.90;;;;;;7338270;19;109155;-74
2022/10/24 05:58:55;;;;;;;;;;;17.50;99.90;;;;;;7333838;19;109925;-74
2022/10/24 06:01:22;;;;;;;;;;;17.50;99.90;;;;;;7335459;19;110873;-74
2022/10/24 06:03:49;;;;;;;;;;;17.50;99.90;;;;;;7334204;19;109716;-75
2022/10/24 06:06:16;;;;;;;;;;;17.50;99.90;;;;;;7333056;19;108812;-74
2022/10/24 06:08:43;;;;;;;;;;;17.50;99.90;;;;;;7335955;19;108999;-76
2022/10/24 06:11:10;;;;;;;;;;;17.50;99.90;;;;;;7334981;19;110422;-75
2022/10/24 06:13:38;;;;;;;;;;;17.60;99.90;;;;;;7336809;19;108522;-75
2022/10/24 06:16:05;;;;;;;;;;;17.60;99.90;;;;;;7338307;19;109562;-75
2022/10/24 06:18:32;;;;;;;;;;;17.60;99.90;;;;;;7341555;19;110123;-75
2022/10/24 06:21:00;;;;;;;;;;;17.50;99.90;;;;;;7331663;19;108832;-75
2022/10/24 06:23:27;;;;;;;;;;;17.50;99.90;;;;;;7333006;19;110292;-75
2022/10/24 06:25:54;;;;;;;;;;;17.40;99.90;;;;;;7336976;19;108741;-74
2022/10/24 06:28:21;;;;;;;;;;;17.30;99.90;;;;;;7334965;19;108640;-74
2022/10/24 06:30:49;;;;;;;;;;;17.30;99.90;;;;;;7330510;19;110753;-75
2022/10/24 06:33:16;;;;;;;;;;;17.20;99.90;;;;;;7331795;19;110126;-75
2022/10/24 06:35:43;;;;;;;;;;;17.20;99.90;;;;;;7334148;19;109047;-75
2022/10/24 06:38:10;;;;;;;;;;;17.20;99.90;;;;;;7341691;19;110190;-75
2022/10/24 06:40:39;;;;;;;;;;;17.20;99.90;;;;;;7335492;19;112126;-75
2022/10/24 06:43:06;;;;;;;;;;;17.20;99.90;;;;;;7336589;19;110416;-75
2022/10/24 06:45:33;;;;;;;;;;;17.20;99.90;;;;;;7334159;19;109543;-75
2022/10/24 06:48:00;;;;;;;;;;;17.10;99.90;;;;;;7337276;19;109735;-75
2022/10/24 06:50:27;;;;;;;;;;;17.20;99.90;;;;;;7333801;19;110640;-75
2022/10/24 06:52:54;;;;;;;;;;;17.20;99.90;;;;;;7336623;19;109001;-75
2022/10/24 06:55:21;;;;;;;;;;;17.20;99.90;;;;;;7333487;19;108823;-75
2022/10/24 06:57:47;;;;;;;;;;;17.20;99.90;;;;;;7335227;19;109977;-74
2022/10/24 07:00:14;;;;;;;;;;;17.20;99.90;;;;;;7342558;19;108699;-74
2022/10/24 07:02:41;;;;;;;;;;;17.20;99.90;;;;;;7338517;19;109459;-74
2022/10/24 07:05:11;;;;;;;;;;;17.20;99.90;;;;;;7335667;19;108643;-74
2022/10/24 07:07:40;;;;;;;;;;;17.20;99.90;;;;;;7335292;19;109728;-74
2022/10/24 07:10:09;;;;;;;;;;;17.20;99.90;;;;;;7333018;19;110531;-75
2022/10/24 07:12:36;;;;;;;;;;;17.10;99.90;;;;;;7332387;19;108749;-75
2022/10/24 07:15:03;;;;;;;;;;;17.10;99.90;;;;;;7335208;19;108961;-74
2022/10/24 07:17:30;;;;;;;;;;;17.10;99.90;;;;;;7331320;19;110220;-73
2022/10/24 07:19:57;;;;;;;;;;;17.00;99.90;;;;;;7333367;19;110237;-75
2022/10/24 07:22:24;;;;;;;;;;;17.00;99.90;;;;;;7336884;19;109096;-75
2022/10/24 07:24:54;;;;;;;;;;;17.00;99.90;;;;;;7335386;19;108857;-75
2022/10/24 07:27:21;;;;;;;;;;;17.00;99.90;;;;;;7334509;19;109674;-75
2022/10/24 07:29:48;;;;;;;;;;;17.00;99.90;;;;;;7333875;19;110183;-75
2022/10/24 07:32:15;;;;;;;;;;;17.00;99.90;;;;;;7335371;19;109274;-75
2022/10/24 07:34:42;;;;;;;;;;;16.90;99.90;;;;;;7336870;19;108794;-74
2022/10/24 07:37:09;;;;;;;;;;;17.00;99.90;;;;;;7331984;19;109737;-75
2022/10/24 07:39:36;;;;;;;;;;;17.00;99.90;;;;;;7331570;19;109206;-74
2022/10/24 07:42:03;;;;;;;;;;;16.90;99.90;;;;;;7332965;19;110161;-74
2022/10/24 07:44:30;;;;;;;;;;;17.00;99.90;;;;;;7337283;19;111655;-68
2022/10/24 07:46:57;;;;;;;;;;;17.00;99.90;;;;;;7330024;19;110444;-68
2022/10/24 07:49:24;;;;;;;;;;;17.00;99.90;;;;;;7330406;19;109818;-68
2022/10/24 07:51:57;;;;;;;;;;;17.00;99.90;;;;;;7338242;19;110525;-68
2022/10/24 07:54:25;;;;;;;;;;;17.00;99.90;;;;;;7340615;19;108587;-68
2022/10/24 07:56:52;;;;;;;;;;;17.00;99.90;;;;;;7339895;19;110720;-71
2022/10/24 07:59:19;;;;;;;;;;;16.90;99.90;;;;;;7339605;19;108429;-68
2022/10/24 08:02:07;;;;;;;;;;;17.00;99.90;;;;;;7339778;19;110870;-68
2022/10/24 08:04:35;;;;;;;;;;;17.00;99.90;;;;;;7337028;19;110460;-69
2022/10/24 08:07:02;;;;;;;;;;;16.90;99.90;;;;;;7347056;19;108490;-68
2022/10/24 08:09:29;;;;;;;;;;;17.00;99.90;;;;;;7337202;19;109615;-68
2022/10/24 08:11:55;;;;;;;;;;;17.10;99.90;;;;;;7342317;19;109797;-68
2022/10/24 08:14:22;;;;;;;;;;;17.10;99.90;;;;;;7341161;19;109582;-68
2022/10/24 08:16:49;;;;;;;;;;;17.10;99.90;;;;;;7341541;19;111594;-68
2022/10/24 08:19:16;;;;;;;;;;;17.10;99.90;;;;;;7340874;19;109377;-68
2022/10/24 08:21:43;;;;;;;;;;;17.10;99.90;;;;;;7340648;19;108944;-68
2022/10/24 08:24:10;;;;;;;;;;;17.20;99.90;;;;;;7339439;19;109257;-68
2022/10/24 08:26:39;;;;;;;;;;;17.20;99.90;;;;;;7340525;19;108956;-68
2022/10/24 08:29:10;;;;;;;;;;;17.20;99.90;;;;;;7345520;19;109157;-67
2022/10/24 08:31:37;;;;;;;;;;;17.30;99.90;;;;;;7341896;19;108773;-67
2022/10/24 08:34:05;;;;;;;;;;;17.30;99.90;;;;;;7340535;19;109186;-69
2022/10/24 08:36:33;;;;;;;;;;;17.50;99.90;;;;;;7339101;19;114123;-70
2022/10/24 08:39:01;;;;;;;;;;;17.50;99.90;;;;;;7340015;19;108664;-69
2022/10/24 08:41:42;;;;;;;;;;;17.60;99.90;;;;;;7337360;19;109123;-68
2022/10/24 08:44:17;;;;;;;;;;;17.70;99.90;;;;;;7338700;19;111363;-69
2022/10/24 08:46:50;;;;;;;;;;;17.90;99.90;;;;;;7336984;19;108937;-70
2022/10/24 08:49:36;;;;;;;;;;;17.90;99.90;;;;;;7347331;19;109143;-70
2022/10/24 08:52:12;;;;;;;;;;;18.00;99.90;;;;;;7340022;19;108854;-69
2022/10/24 08:54:40;;;;;;;;;;;18.10;99.90;;;;;;7340886;19;108607;-68
2022/10/24 08:57:17;;;;;;;;;;;18.10;99.90;;;;;;7340006;19;112359;-68
2022/10/24 08:59:44;;;;;;;;;;;18.20;99.90;;;;;;7340743;19;109275;-68
2022/10/24 09:02:25;;;;;;;;;;;18.20;99.90;;;;;;7339692;19;108215;-68
2022/10/24 09:05:10;;;;;;;;;;;18.20;99.90;;;;;;7338278;19;110520;-70
2022/10/24 09:07:38;;;;;;;;;;;18.20;99.90;;;;;;7339904;19;109779;-68
2022/10/24 09:10:17;;;;;;;;;;;18.20;99.90;;;;;;7341031;19;109173;-69
2022/10/24 09:12:44;;;;;;;;;;;18.20;99.90;;;;;;7343536;19;109197;-68
2022/10/24 09:15:16;;;;;;;;;;;18.30;99.90;;;;;;7339996;19;108656;-68
2022/10/24 09:17:43;;;;;;;;;;;18.30;99.90;;;;;;7338437;19;109216;-69
2022/10/24 09:20:27;;;;;;;;;;;18.20;99.90;;;;;;7337235;19;109507;-68
2022/10/24 09:22:57;;;;;;;;;;;18.30;99.90;;;;;;7335771;19;109229;-68
2022/10/24 09:25:29;;;;;;;;;;;18.30;99.90;;;;;;7334239;19;110362;-68
2022/10/24 09:27:57;;;;;;;;;;;18.40;99.90;;;;;;7337080;19;109542;-68
2022/10/24 09:30:26;;;;;;;;;;;18.60;99.90;;;;;;7338024;19;109020;-68
2022/10/24 09:33:01;;;;;;;;;;;18.70;99.90;;;;;;7340037;19;109897;-68
2022/10/24 09:35:29;;;;;;;;;;;18.80;99.90;;;;;;7339106;19;108587;-68
2022/10/24 09:38:16;;;;;;;;;;;18.90;99.90;;;;;;7335447;19;110738;-68
2022/10/24 09:40:48;;;;;;;;;;;19.10;99.90;;;;;;7337350;19;110118;-69
2022/10/24 09:43:21;;;;;;;;;;;19.20;99.90;;;;;;7336245;19;109434;-67
2022/10/24 09:45:59;;;;;;;;;;;19.30;99.90;;;;;;7338190;19;110308;-68
2022/10/24 09:48:31;;;;;;;;;;;19.20;99.90;;;;;;7338107;19;108664;-68
2022/10/24 09:50:58;;;;;;;;;;;19.20;99.90;;;;;;7337405;19;108847;-68
2022/10/24 09:53:32;;;;;;;;;;;19.30;99.90;;;;;;7336998;19;109601;-68
2022/10/24 09:56:05;;;;;;;;;;;19.30;99.90;;;;;;7339959;19;108855;-68
2022/10/24 09:58:32;;;;;;;;;;;19.20;99.90;;;;;;7339501;19;109372;-68
2022/10/24 10:01:05;;;;;;;;;;;19.20;99.90;;;;;;7335081;19;108432;-68
2022/10/24 10:03:33;;;;;;;;;;;19.30;99.90;;;;;;7336104;19;108605;-70
2022/10/24 10:06:14;;;;;;;;;;;19.30;99.90;;;;;;7335715;19;109346;-68
2022/10/24 10:08:47;;;;;;;;;;;19.30;99.90;;;;;;7338293;19;109113;-68
2022/10/24 10:11:14;;;;;;;;;;;19.10;99.90;;;;;;7336396;19;109189;-69
2022/10/24 10:13:49;;;;;;;;;;;19.10;99.90;;;;;;7336891;19;109275;-68
2022/10/24 10:16:22;;;;;;;;;;;19.10;99.90;;;;;;7335076;19;109349;-68
2022/10/24 10:18:48;;;;;;;;;;;19.10;99.90;;;;;;7338610;19;108750;-68
2022/10/24 10:21:20;;;;;;;;;;;19.20;99.90;;;;;;7342224;19;109808;-68
2022/10/24 10:23:51;;;;;;;;;;;19.30;99.90;;;;;;7340175;19;109871;-68
2022/10/24 10:26:18;;;;;;;;;;;19.30;99.90;;;;;;7336064;19;109621;-69
2022/10/24 10:28:45;;;;;;;;;;;19.40;99.90;;;;;;7338054;19;108906;-68
2022/10/24 10:31:13;;;;;;;;;;;19.50;99.90;;;;;;7337641;19;109159;-68
2022/10/24 10:34:06;;;;;;;;;;;19.70;99.90;;;;;;7336992;19;111855;-68
2022/10/24 10:36:53;;;;;;;;;;;19.70;99.90;;;;;;7331804;19;109310;-68
2022/10/24 10:39:30;;;;;;;;;;;19.50;99.90;;;;;;7329945;19;108416;-68
2022/10/24 10:41:57;;;;;;;;;;;19.40;99.90;;;;;;7335471;19;110610;-68
2022/10/24 10:44:33;;;;;;;;;;;19.30;99.90;;;;;;7340889;19;108676;-68
2022/10/24 10:47:18;;;;;;;;;;;19.20;99.90;;;;;;7331806;19;110130;-68
2022/10/24 10:49:54;;;;;;;;;;;19.10;99.90;;;;;;7332066;19;108550;-68
2022/10/24 10:52:30;;;;;;;;;;;19.10;99.90;;;;;;7335448;19;109242;-68
2022/10/24 10:55:09;;;;;;;;;;;19.20;99.90;;;;;;7337422;19;109348;-67
2022/10/24 10:57:39;;;;;;;;;;;19.30;99.90;;;;;;7332875;19;108663;-68
2022/10/24 11:00:14;;;;;;;;;;;19.50;99.90;;;;;;7335280;19;108822;-69
2022/10/24 11:02:57;;;;;;;;;;;19.60;99.90;;;;;;7334318;19;110162;-68
2022/10/24 11:05:26;;;;;;;;;;;19.70;99.90;;;;;;7339611;19;108720;-68
2022/10/24 11:07:56;;;;;;;;;;;19.90;99.90;;;;;;7334881;19;109626;-69
2022/10/24 11:10:26;;;;;;;;;;;20.00;99.90;;;;;;7333688;19;110257;-68
2022/10/24 11:12:53;;;;;;;;;;;20.10;99.90;;;;;;7335681;19;108373;-70
2022/10/24 11:15:26;;;;;;;;;;;20.30;99.90;;;;;;7334240;19;109160;-68
2022/10/24 11:17:53;;;;;;;;;;;20.40;99.90;;;;;;7336512;19;109542;-68
2022/10/24 11:20:41;;;;;;;;;;;20.40;99.90;;;;;;7334279;19;119709;-69
2022/10/24 11:23:08;;;;;;;;;;;20.50;99.90;;;;;;7337586;19;109346;-69
2022/10/24 11:25:37;;;;;;;;;;;20.50;99.90;;;;;;7334276;19;109017;-69
2022/10/24 11:28:07;;;;;;;;;;;20.40;99.90;;;;;;7339249;19;109428;-70
2022/10/24 11:30:42;;;;;;;;;;;20.30;99.90;;;;;;7332823;19;108803;-68
2022/10/24 11:33:13;;;;;;;;;;;20.20;99.90;;;;;;7332828;19;109862;-69
2022/10/24 11:35:51;;;;;;;;;;;20.00;99.90;;;;;;7335738;19;110488;-69
2022/10/24 11:38:20;;;;;;;;;;;20.00;99.90;;;;;;7333907;19;108775;-68
2022/10/24 11:40:49;;;;;;;;;;;19.90;99.90;;;;;;7337669;19;109200;-69
2022/10/24 11:43:32;;;;;;;;;;;19.90;99.90;;;;;;7335165;19;109148;-70
2022/10/24 11:46:04;;;;;;;;;;;19.70;99.90;;;;;;7334215;19;108417;-73
2022/10/24 11:48:37;;;;;;;;;;;19.60;99.90;;;;;;7334686;19;109250;-75
2022/10/24 11:51:16;;;;;;;;;;;19.50;99.90;;;;;;7339296;19;109604;-71
2022/10/24 11:53:59;;;;;;;;;;;19.50;99.90;;;;;;7334698;19;108607;-69
2022/10/24 11:56:29;;;;;;;;;;;19.40;99.90;;;;;;7333852;19;109922;-69
2022/10/24 11:58:58;;;;;;;;;;;19.40;99.90;;;;;;7333958;19;109247;-74
2022/10/24 12:01:40;;;;;;;;;;;19.40;99.90;;;;;;7332716;19;109414;-70
2022/10/24 12:04:10;;;;;;;;;;;19.40;99.90;;;;;;7334473;19;108834;-74
2022/10/24 12:06:44;;;;;;;;;;;19.50;99.90;;;;;;7333979;19;108417;-73
2022/10/24 12:09:25;;;;;;;;;;;19.60;99.90;;;;;;7333414;19;109315;-71
2022/10/24 12:12:16;;;;;;;;;;;19.60;99.90;;;;;;7334759;19;109934;-71
2022/10/24 12:15:01;;;;;;;;;;;19.60;99.90;;;;;;7339386;19;108398;-76
2022/10/24 12:17:36;;;;;;;;;;;19.70;99.90;;;;;;7331277;19;110422;-69
2022/10/24 12:20:10;;;;;;;;;;;19.80;99.90;;;;;;7331683;19;108891;-74
2022/10/24 12:22:39;;;;;;;;;;;19.90;99.90;;;;;;7336844;19;114446;-70
2022/10/24 12:25:24;;;;;;;;;;;19.90;99.90;;;;;;7341227;19;110254;-76
2022/10/24 12:27:58;;;;;;;;;;;19.90;99.90;;;;;;7340045;19;109950;-71
2022/10/24 12:30:27;;;;;;;;;;;20.00;99.90;;;;;;7339921;19;108271;-72
2022/10/24 12:32:55;;;;;;;;;;;20.00;99.90;;;;;;7342005;19;110405;-71
2022/10/24 12:35:25;;;;;;;;;;;20.10;99.90;;;;;;7338564;19;108452;-74
2022/10/24 12:37:57;;;;;;;;;;;20.10;99.90;;;;;;7343439;19;108966;-70
2022/10/24 12:40:42;;;;;;;;;;;20.20;99.90;;;;;;7339609;19;109228;-75
2022/10/24 12:43:15;;;;;;;;;;;20.20;99.90;;;;;;7340430;19;108270;-73
2022/10/24 12:45:42;;;;;;;;;;;20.00;99.90;;;;;;7340216;19;110276;-71
2022/10/24 12:48:22;;;;;;;;;;;20.00;99.90;;;;;;7340524;19;109777;-74
2022/10/24 12:50:59;;;;;;;;;;;20.00;99.90;;;;;;7341054;19;109694;-72
2022/10/24 12:53:30;;;;;;;;;;;20.00;99.90;;;;;;7338189;19;110111;-71
2022/10/24 12:55:57;;;;;;;;;;;20.10;99.90;;;;;;7342270;19;108361;-72
2022/10/24 12:58:28;;;;;;;;;;;20.20;99.90;;;;;;7343739;19;108864;-73
2022/10/24 13:01:12;;;;;;;;;;;20.20;99.90;;;;;;7339668;19;108459;-74
2022/10/24 13:03:54;;;;;;;;;;;20.30;99.90;;;;;;7338516;19;110179;-71
2022/10/24 13:06:39;;;;;;;;;;;20.30;99.90;;;;;;7338303;19;109955;-69
2022/10/24 13:09:14;;;;;;;;;;;20.40;99.90;;;;;;7339389;19;109557;-70
2022/10/24 13:11:46;;;;;;;;;;;20.40;99.90;;;;;;7339377;19;109685;-74
2022/10/24 13:14:24;;;;;;;;;;;20.40;99.90;;;;;;7336191;19;108906;-68
2022/10/24 13:16:51;;;;;;;;;;;20.40;99.90;;;;;;7339079;19;109633;-69
2022/10/24 13:19:21;;;;;;;;;;;20.50;99.90;;;;;;7336859;19;109153;-69
2022/10/24 13:21:50;;;;;;;;;;;20.50;99.90;;;;;;7344453;19;109170;-68
2022/10/24 13:24:18;;;;;;;;;;;20.50;99.90;;;;;;7337090;19;109965;-72
2022/10/24 13:26:50;;;;;;;;;;;20.50;99.90;;;;;;7338855;19;109129;-69
2022/10/24 13:29:22;;;;;;;;;;;20.70;99.90;;;;;;7338384;19;112554;-69
2022/10/24 13:31:50;;;;;;;;;;;20.80;99.90;;;;;;7337621;19;108457;-69
2022/10/24 13:34:19;;;;;;;;;;;20.80;99.90;;;;;;7337510;19;109229;-69
2022/10/24 13:36:48;;;;;;;;;;;20.90;99.90;;;;;;7339795;19;108904;-69
2022/10/24 13:39:17;;;;;;;;;;;21.00;99.90;;;;;;7336658;19;109325;-69
2022/10/24 13:41:48;;;;;;;;;;;21.00;99.90;;;;;;7337311;19;109250;-68
2022/10/24 13:44:21;;;;;;;;;;;21.10;99.90;;;;;;7342122;19;110341;-69
2022/10/24 13:46:54;;;;;;;;;;;21.20;99.90;;;;;;7339708;19;109221;-68
2022/10/24 13:49:25;;;;;;;;;;;21.20;99.90;;;;;;7337886;19;109471;-69
2022/10/24 13:51:53;;;;;;;;;;;21.40;99.90;;;;;;7338543;19;110602;-69
2022/10/24 13:54:23;;;;;;;;;;;21.40;99.90;;;;;;7332534;19;109384;-69
2022/10/24 13:56:50;;;;;;;;;;;21.40;99.90;;;;;;7336078;19;109051;-69
2022/10/24 13:59:31;;;;;;;;;;;21.40;99.90;;;;;;7337076;19;109511;-68
2022/10/24 14:01:59;;;;;;;;;;;21.40;99.90;;;;;;7334061;19;110202;-68
2022/10/24 14:04:29;;;;;;;;;;;21.30;99.90;;;;;;7333535;19;110366;-69
2022/10/24 14:07:00;;;;;;;;;;;21.20;99.90;;;;;;7342457;19;109244;-69
2022/10/24 14:09:26;;;;;;;;;;;21.10;99.90;;;;;;7336858;19;108825;-68
2022/10/24 14:11:56;;;;;;;;;;;21.10;99.90;;;;;;7338578;19;108758;-68
2022/10/24 14:14:35;;;;;;;;;;;21.10;99.90;;;;;;7334520;19;110761;-69
2022/10/24 14:17:34;;;;;;;;;;;21.10;99.90;;;;;;7337372;19;108555;-69
2022/10/24 14:20:19;;;;;;;;;;;21.20;99.90;;;;;;7337534;19;111176;-70
2022/10/24 14:22:46;;;;;;;;;;;21.20;99.90;;;;;;7334210;19;109366;-68